• Join FlightAware (Why Join?)
  • Login
  • US Flag 
09:07PM EDT


 

Airport Tracker/Info


-or-


 

Live Flight TrackerFlight Track Log ✈ GJS3707 ✈ 16-May-2013 ✈ KBOI - KORD

Flight Track Log - Related Links

Times and Time Zones

All times are in EDT time to prevent confusion due to time zone crossing. See the GJS3707 flight status page for this flight to view local times or setup timezone preferences in your user account.

Time Position Orientation Groundspeed Altitude Reporting Facility
EDT Latitude Longitude Course Direction KTS MPH feet Rate Location/Type
03:22PM 43.5864 -116.2978 65° Northeast 195 224 4,800  Level Salt Lake Center
03:23PM 43.6469 -116.2967 North 229 264 6,800 1,920 Climbing Salt Lake Center
03:24PM 43.6789 -116.2178 61° Northeast 262 302 8,800 2,100 Climbing Salt Lake Center
03:25PM 43.6928 -116.1022 81° East 274 315 11,200 2,040 Climbing Salt Lake Center
03:26PM 43.7053 -115.9947 81° East 293 337 13,000 1,560 Climbing Salt Lake Center
03:27PM 43.7194 -115.8783 80° East 319 367 14,500 1,440 Climbing Salt Lake Center
03:28PM 43.6869 -115.2727 65° Northeast  Level FlightAware Approximate
03:28PM 43.7367 -115.7281 81° East 349 402 16,000  Level Salt Lake Center
03:29PM 43.7531 -115.5897 81° East 374 430 17,200 1,260 Climbing Salt Lake Center
03:31PM 43.7731 -115.4164 81° East 405 466 18,700 1,380 Climbing Salt Lake Center
03:32PM 43.7892 -115.2639 82° East 418 481 20,100 1,500 Climbing Salt Lake Center
03:33PM 43.8094 -115.0844 81° East 424 488 21,800 1,500 Climbing Salt Lake Center
03:34PM 43.8272 -114.9300 81° East 426 490 23,200 1,200 Climbing Salt Lake Center
03:35PM 43.8478 -114.7456 81° East 436 502 24,300 960 Climbing Salt Lake Center
03:36PM 43.8661 -114.5833 81° East 447 514 25,300 1,020 Climbing Salt Lake Center
03:37PM 43.8856 -114.3886 82° East 457 526 26,400 1,020 Climbing Salt Lake Center
03:38PM 43.9039 -114.2194 81° East 465 535 27,400 960 Climbing Salt Lake Center
03:39PM 43.9203 -114.0486 82° East 467 537 28,400 1,020 Climbing Salt Lake Center
03:40PM 43.9394 -113.8525 82° East 470 541 29,500 900 Climbing Salt Lake Center
03:41PM 43.9564 -113.6786 82° East 474 545 30,300 720 Climbing Salt Lake Center
03:42PM 43.9742 -113.4744 83° East 478 550 31,100 720 Climbing Salt Lake Center
03:44PM 44.0100 -113.0892 83° East 487 560 32,600 660 Climbing Salt Lake Center
03:45PM 44.0275 -112.9089 82° East 493 567 33,300 720 Climbing Salt Lake Center
03:46PM 44.0467 -112.6986 83° East 492 566 34,100 660 Climbing Salt Lake Center
03:47PM 44.0644 -112.5172 82° East 495 570 34,700 480 Climbing Salt Lake Center
03:48PM 44.0775 -112.3356 84° East 495 570 35,100 120 Climbing Salt Lake Center
03:49PM 44.0750 -112.1175 91° East 509 586 35,000  Descending Salt Lake Center
03:50PM 44.0503 -111.9367 101° East 502 578 35,100  Climbing Salt Lake Center
03:51PM 44.0178 -111.7192 102° East 517 595 35,000 -60 Descending Salt Lake Center
03:52PM 43.9906 -111.5333 101° East 517 595 35,000  Level Salt Lake Center
03:53PM 43.9592 -111.3186 101° East 513 590 35,100  Climbing Salt Lake Center
03:54PM 43.9314 -111.1344 102° East 513 590 35,000 -60 Descending Salt Lake Center
03:55PM 43.8994 -110.9206 102° East 510 587 35,000  Level Salt Lake Center
03:56PM 43.8708 -110.7353 102° East 511 588 35,100  Climbing Salt Lake Center
03:57PM 43.8414 -110.5528 103° East 508 585 35,000 -60 Descending Salt Lake Center
03:58PM 43.8083 -110.3406 102° East 507 583 35,000  Level Salt Lake Center
03:59PM 43.7792 -110.1594 103° East 505 581 35,000  Level Salt Lake Center
04:00PM 43.7442 -109.9500 103° East 501 577 35,000  Level Salt Lake Center
04:01PM 43.7150 -109.7703 103° East 497 572 35,000  Level Salt Lake Center
04:02PM 43.6797 -109.5600 103° East 503 579 35,000  Level Salt Lake Center
04:03PM 43.6511 -109.3858 103° East 502 578 35,000  Level Salt Lake Center
04:04PM 43.6153 -109.1767 103° East 504 580 35,000  Level Salt Lake Center
04:05PM 43.5850 -108.9989 103° East 501 577 35,000  Level Salt Lake Center
04:06PM 43.5492 -108.7900 103° East 501 577 35,000  Level Salt Lake Center
04:07PM 43.5178 -108.6119 104° East 501 577 35,000  Level Salt Lake Center
04:09PM 43.4856 -108.4344 104° East 501 577 35,000  Level Salt Lake Center
04:10PM 43.4417 -108.2308 106° East 500 575 35,000  Level Salt Lake Center
04:11PM 43.3900 -108.0633 113° Southeast 500 575 35,000  Level Salt Lake Center
04:12PM 43.3317 -107.8675 112° Southeast 498 573 35,000  Level Salt Lake Center
04:13PM 43.2817 -107.7008 112° Southeast 496 571 35,000  Level Salt Lake Center
04:14PM 43.2225 -107.5072 113° Southeast 494 568 35,000  Level Salt Lake Center
04:15PM 43.1722 -107.3411 112° Southeast 495 570 35,000  Level Salt Lake Center
04:15PM 43.1414 -107.2383 112° Southeast 493 567 35,000  Level Denver Center
04:16PM 43.0811 -107.0450 113° Southeast 496 571 35,000  Level Denver Center
04:17PM 43.0292 -106.8789 113° Southeast 497 572 35,000  Level Denver Center
04:18PM 42.9694 -106.6869 113° Southeast 494 568 35,000  Level Denver Center
04:19PM 42.9167 -106.5233 114° Southeast 494 568 35,000  Level Denver Center
04:20PM 42.8564 -106.3328 113° Southeast 490 564 35,000  Level Denver Center
04:22PM 42.8044 -106.1714 114° Southeast 486 559 35,100  Climbing Denver Center
04:23PM 42.7428 -105.9811 114° Southeast 492 566 35,000 -60 Descending Denver Center
04:24PM 42.6906 -105.8214 114° Southeast 485 558 35,000  Level Denver Center
04:25PM 42.6286 -105.6339 114° Southeast 487 560 35,100  Climbing Denver Center
04:26PM 42.6161 -105.4636 96° East 478 550 35,000  Descending Denver Center
04:27PM 42.6164 -105.2942 90° East 471 542 35,100  Climbing Denver Center
04:28PM 42.5894 -105.1022 101° East 465 535 35,000 -60 Descending Denver Center
04:29PM 42.5894 -104.9389 90° East 471 542 35,000  Level Denver Center
04:30PM 42.6494 -104.7664 65° Northeast 454 522 35,000  Level Denver Center
04:31PM 42.7064 -104.6122 63° Northeast 459 528 35,000  Level Denver Center
04:32PM 42.7644 -104.4581 63° Northeast 467 537 35,100  Climbing Denver Center
04:33PM 42.8172 -104.3047 65° Northeast 467 537 35,000 -60 Descending Denver Center
04:34PM 42.8375 -104.1136 82° East 458 527 35,000  Level Denver Center
04:35PM 42.8192 -103.9125 97° East 477 549 35,000  Level Denver Center
04:36PM 42.7797 -103.7439 108° East 485 558 35,000  Level Denver Center
04:37PM 42.7347 -103.5461 107° East 489 563 35,000  Level Denver Center
04:38PM 42.6950 -103.3783 108° East 488 562 35,100  Climbing Denver Center
04:39PM 42.6553 -103.2097 108° East 489 563 35,100 -60 Level Denver Center
04:40PM 42.6075 -103.0161 108° East 485 558 35,000 -60 Descending Denver Center
04:41PM 42.5692 -102.8519 108° East 479 551 35,000  Level Denver Center
04:42PM 42.5233 -102.6608 108° East 476 548 35,000  Level Denver Center
04:43PM 42.4842 -102.5006 108° East 471 542 35,000  Level Denver Center
04:44PM 42.4378 -102.3117 108° East 473 544 35,000  Level Denver Center
04:45PM 42.4047 -102.1783 109° East 469 540 35,000  Level Denver Center
04:46PM 42.3550 -101.9731 108° East 449 517 35,000  Level Denver Center
04:47PM 42.3192 -101.8325 109° East 451 519 35,000  Level Denver Center
04:48PM 42.2736 -101.6506 109° East 459 528 35,100  Climbing Denver Center
04:49PM 42.2333 -101.4942 109° East 460 529 35,000 -60 Descending Denver Center
04:50PM 42.1875 -101.3122 109° East 458 527 35,000  Level Denver Center
04:52PM 42.1461 -101.1592 110° East 456 525 35,000  Level Denver Center
04:53PM 42.0933 -100.9531 109° East 455 524 35,000  Level Denver Center
04:54PM 42.0528 -100.8006 110° East 452 520 35,100  Climbing Denver Center
04:55PM 42.0053 -100.6225 110° East 453 521 35,000 -60 Descending Denver Center
04:56PM 41.9564 -100.4375 110° East 466 536 35,000  Level Denver Center
04:56PM 41.9389 -100.3728 110° East 466 536 35,000  Level Minneapolis Center
04:57PM 41.9067 -100.2522 110° East 470 541 35,000  Level Denver Center
04:58PM 41.8628 -100.0900 110° East 478 550 35,100  Climbing Denver Center
04:59PM 41.8119 -99.9031 110° East 478 550 35,000 -60 Descending Denver Center
05:00PM 41.7756 -99.7667 110° East 483 556 35,000  Level Denver Center
05:01PM 41.7203 -99.5675 110° East 477 549 35,000  Level Denver Center
05:02PM 41.6658 -99.3689 110° East 474 545 35,000  Level Denver Center
05:03PM 41.6186 -99.2025 111° Southeast 476 548 35,000  Level Denver Center
05:04PM 41.5644 -99.0056 110° East 471 542 35,000  Level Minneapolis Center
05:06PM 41.5217 -98.8625 112° Southeast 471 542 35,000  Level Minneapolis Center
05:07PM 41.4656 -98.6686 111° Southeast 469 540 35,000  Level Minneapolis Center
05:08PM 41.4200 -98.5069 111° Southeast 467 537 35,000  Level Minneapolis Center
05:09PM 41.4094 -98.3383 95° East 480 552 35,000  Level Minneapolis Center
05:10PM 41.4447 -98.1664 75° East 480 552 35,000  Level Minneapolis Center
05:11PM 41.5072 -98.0000 63° Northeast 484 557 35,000  Level Minneapolis Center
05:12PM 41.5353 -97.8256 78° East 485 558 35,000  Level Minneapolis Center
05:13PM 41.5686 -97.6178 78° East 479 551 35,000  Level Minneapolis Center
05:14PM 41.5928 -97.4428 79° East 479 551 35,000  Level Minneapolis Center
05:15PM 41.5733 -97.2692 98° East 476 548 35,000  Level Minneapolis Center
05:16PM 41.5561 -97.0592 96° East 476 548 35,000  Level Minneapolis Center
05:17PM 41.5444 -96.8828 95° East 477 549 35,000  Level Minneapolis Center
05:18PM 41.5322 -96.7061 95° East 478 550 35,000  Level Minneapolis Center
05:19PM 41.5172 -96.4972 95° East 473 544 35,000  Level Minneapolis Center
05:20PM 41.5056 -96.3261 95° East 475 547 35,000  Level Minneapolis Center
05:21PM 41.4911 -96.1492 96° East 478 550 35,000  Level Minneapolis Center
05:22PM 41.4803 -95.9747 95° East 475 547 35,000  Level Minneapolis Center
05:24PM 41.4669 -95.7639 95° East 475 547 35,000  Level Minneapolis Center
05:25PM 41.4536 -95.5714 95° East 475 547 35,000  Level Minneapolis Center
05:26PM 41.4406 -95.3969 96° East 473 544 35,000  Level Minneapolis Center
05:27PM 41.4478 -95.2242 87° East 472 543 35,000  Level Minneapolis Center
05:28PM 41.4914 -95.0236 74° East 470 541 35,000  Level Minneapolis Center
05:29PM 41.5308 -94.8553 73° East 474 545 35,000  Level Minneapolis Center
05:30PM 41.5614 -94.7211 73° East 473 544 35,000  Level Minneapolis Center
05:31PM 41.6072 -94.5200 73° East 473 544 35,000  Level Minneapolis Center
05:32PM 41.6453 -94.3525 73° East 472 543 35,000  Level Minneapolis Center
05:33PM 41.6839 -94.1836 73° East 474 545 35,000  Level Minneapolis Center
05:34PM 41.7136 -94.0483 74° East 474 545 35,000  Level Minneapolis Center
05:35PM 41.7597 -93.8417 73° East 474 545 35,000  Level Minneapolis Center
05:36PM 41.8050 -93.6381 73° East 478 550 35,000  Level Minneapolis Center
05:37PM 41.8419 -93.4683 74° East 477 549 35,000  Level Minneapolis Center
05:38PM 41.8783 -93.2989 74° East 477 549 35,000  Level Minneapolis Center
05:39PM 41.9150 -93.1297 74° East 475 547 35,000  Level Minneapolis Center
05:40PM 41.9522 -92.9522 74° East 474 545 35,000  Level Minneapolis Center
05:41PM 41.9878 -92.7822 74° East 477 549 35,000  Level Minneapolis Center
05:42PM 42.0306 -92.5803 74° East 475 547 35,000 -180 Level Minneapolis Center
05:43PM 42.0442 -92.5094 75° East 478 550 34,800 -840 Descending Chicago Center
05:44PM 42.0800 -92.3403 74° East 477 549 33,800 -1,020 Descending Chicago Center
05:45PM 42.1144 -92.1694 75° East 478 550 32,800 -1,020 Descending Chicago Center
05:46PM 42.1486 -91.9981 75° East 480 552 31,800 -900 Descending Chicago Center
05:47PM 42.1908 -91.7936 74° East 480 552 31,000 -420 Descending Chicago Center
05:48PM 42.2244 -91.6239 75° East 479 551 31,000  Level Chicago Center
05:49PM 42.2583 -91.4506 75° East 483 556 31,000 -180 Level Chicago Center
05:50PM 42.2928 -91.2775 75° East 487 560 30,700 -780 Descending Chicago Center
05:51PM 42.3317 -91.0733 75° East 475 547 29,500 -1,080 Descending Chicago Center
05:52PM 42.3644 -90.9019 75° East 476 548 28,500 -960 Descending Chicago Center
05:53PM 42.3975 -90.7306 75° East 477 549 27,600 -960 Descending Chicago Center
05:54PM 42.4153 -90.5597 82° East 468 539 26,600 -1,080 Descending Chicago Center
05:55PM 42.4369 -90.3528 82° East 469 540 25,400 -1,080 Descending Chicago Center
05:56PM 42.4506 -90.1825 84° East 463 533 24,400 -1,140 Descending Chicago Center
05:57PM 42.4419 -90.0128 94° East 459 528 23,100 -1,440 Descending Chicago Center
05:58PM 42.4356 -89.8253 93° East 443 510 21,400 -1,500 Descending Chicago Center
05:59PM 42.4283 -89.6664 93° East 428 493 20,100 -1,320 Descending Chicago Center
06:00PM 42.4222 -89.5097 93° East 421 484 18,700 -1,440 Descending Chicago Center
06:01PM 42.4150 -89.3569 94° East 411 473 17,200 -1,320 Descending Chicago Center
06:02PM 42.4094 -89.2103 93° East 393 452 16,000 -1,560 Descending Chicago Center
06:03PM 42.4011 -89.0419 94° East 386 444 14,000 -1,740 Descending Chicago Center
06:04PM 42.3947 -88.9008 93° East 378 435 12,500 -1,440 Descending Chicago Center
06:05PM 42.3881 -88.7631 94° East 372 428 11,100 -1,260 Descending Chicago Center
06:06PM 42.3822 -88.6450 94° East 324 373 10,000 -1,020 Descending Chicago Center
06:07PM 42.3769 -88.5378 94° East 296 341 9,100 -840 Descending Chicago Center
06:08PM 42.3286 -88.4375 123° Southeast 276 318 8,300 -840 Descending Chicago Center
06:09PM 42.2872 -88.3594 126° Southeast 282 325 7,400 -660 Descending Chicago Center
06:11PM 42.2428 -88.2775 126° Southeast 273 314 7,000 -540 Descending Chicago Center
06:12PM 42.1956 -88.1842 124° Southeast 251 289 6,300 -1,020 Descending Chicago Center
06:13PM 42.1603 -88.1189 126° Southeast 226 260 4,900 -1,260 Descending Chicago Center
06:14PM 42.1142 -88.0728 143° Southeast 211 243 3,700 -1,080 Descending Chicago Center
06:15PM 42.0731 -88.0281 141° Southeast 201 231 2,700 -780 Descending Chicago Center
06:16PM 42.0364 -87.9850 139° Southeast 188 216 2,100 -780 Descending Chicago Center
06:17PM 42.0000 -87.9500 144° Southeast 134 154 1,100 -960 Descending Chicago TRACON
06:19PM 41.9817 -87.9067 143° Southeast  Level Estimated